TimeEST,TemperatureF,Dew PointF,Humidity,Sea Level PressureIn,VisibilityMPH,Wind Direction,Wind SpeedMPH,Gust SpeedMPH,PrecipitationIn,Events,Conditions,WindDirDegrees,DateUTC
12:56 AM,52.0,48.9,89,30.15,10.0,South,3.5,-,N/A,,Clear,170,2012-01-08 05:56:00
1:56 AM,52.0,48.9,89,30.15,9.0,South,4.6,-,N/A,,Clear,190,2012-01-08 06:56:00
2:56 AM,52.0,48.9,89,30.16,9.0,South,3.5,-,N/A,,Clear,180,2012-01-08 07:56:00
3:26 AM,48.2,46.4,93,30.16,1.5,Calm,Calm,-,N/A,,Clear,0,2012-01-08 08:26:00
3:34 AM,50.0,48.2,94,30.16,1.0,Calm,Calm,-,N/A,,Clear,0,2012-01-08 08:34:00
3:36 AM,50.0,48.2,94,30.16,1.8,Calm,Calm,-,N/A,,Clear,0,2012-01-08 08:36:00
3:39 AM,51.8,48.2,88,30.16,3.0,Calm,Calm,-,N/A,,Clear,0,2012-01-08 08:39:00
3:56 AM,50.0,48.0,93,30.17,6.0,SSW,3.5,-,N/A,,Clear,200,2012-01-08 08:56:00
4:53 AM,48.2,46.4,93,30.17,1.2,Calm,Calm,-,N/A,,Clear,0,2012-01-08 09:53:00
4:56 AM,46.9,46.0,97,30.17,0.8,Calm,Calm,-,N/A,,Partly Cloudy,0,2012-01-08 09:56:00
5:00 AM,46.4,44.6,93,30.17,0.5,Calm,Calm,-,N/A,Fog,Fog,0,2012-01-08 10:00:00
5:07 AM,46.4,44.6,93,30.17,1.0,Calm,Calm,-,N/A,,Scattered Clouds,0,2012-01-08 10:07:00
5:09 AM,46.4,44.6,93,30.18,2.0,Calm,Calm,-,N/A,,Mostly Cloudy,0,2012-01-08 10:09:00
5:16 AM,46.4,44.6,93,30.18,8.0,Calm,Calm,-,N/A,,Mostly Cloudy,0,2012-01-08 10:16:00
5:26 AM,-9999,-9999,N/A,-9999,-9999.0,North,-9999.0,-,N/A,,Unknown,0,2012-01-08 10:26:00
5:38 AM,48.2,48.2,100,30.18,2.5,Calm,Calm,-,N/A,,Overcast,0,2012-01-08 10:38:00
5:45 AM,48.2,46.4,93,30.18,6.0,Calm,Calm,-,N/A,,Overcast,0,2012-01-08 10:45:00
5:56 AM,48.9,46.9,93,30.19,9.0,Calm,Calm,-,N/A,,Overcast,0,2012-01-08 10:56:00
6:23 AM,50.0,48.2,94,30.19,1.8,Calm,Calm,-,N/A,,Overcast,0,2012-01-08 11:23:00
6:31 AM,50.0,48.2,94,30.19,3.0,Calm,Calm,-,N/A,,Overcast,0,2012-01-08 11:31:00
6:56 AM,50.0,48.0,93,30.20,6.0,Calm,Calm,-,N/A,,Overcast,0,2012-01-08 11:56:00
7:56 AM,51.1,48.9,92,30.21,7.0,Calm,Calm,-,N/A,,Overcast,0,2012-01-08 12:56:00
8:56 AM,54.0,51.1,90,30.23,7.0,Calm,Calm,-,N/A,,Partly Cloudy,0,2012-01-08 13:56:00
9:56 AM,62.1,53.1,72,30.25,10.0,Calm,Calm,-,N/A,,Clear,0,2012-01-08 14:56:00
10:56 AM,66.0,53.1,63,30.25,10.0,West,3.5,-,N/A,,Clear,270,2012-01-08 15:56:00
11:56 AM,70.0,55.0,59,30.22,10.0,SW,6.9,-,N/A,,Clear,230,2012-01-08 16:56:00
12:56 PM,71.1,55.0,57,30.20,10.0,SW,6.9,-,N/A,,Clear,230,2012-01-08 17:56:00
1:56 PM,72.0,54.0,53,30.18,10.0,Variable,3.5,-,N/A,,Partly Cloudy,0,2012-01-08 18:56:00
2:56 PM,72.0,53.1,51,30.18,10.0,WSW,5.8,-,N/A,,Scattered Clouds,250,2012-01-08 19:56:00
3:56 PM,69.1,55.9,63,30.18,10.0,ESE,8.1,-,N/A,,Partly Cloudy,120,2012-01-08 20:56:00
5:56 PM,60.1,53.1,78,30.21,10.0,ESE,4.6,-,N/A,,Clear,120,2012-01-08 22:56:00
6:56 PM,57.9,52.0,81,30.22,10.0,SE,5.8,-,N/A,,Clear,130,2012-01-08 23:56:00
7:56 PM,57.0,52.0,83,30.23,10.0,Calm,Calm,-,N/A,,Clear,0,2012-01-09 00:56:00
8:56 PM,57.0,51.1,81,30.22,10.0,Calm,Calm,-,N/A,,Mostly Cloudy,0,2012-01-09 01:56:00
9:56 PM,55.9,50.0,80,30.22,10.0,SSE,3.5,-,N/A,,Mostly Cloudy,160,2012-01-09 02:56:00
10:56 PM,55.9,48.9,77,30.23,10.0,South,5.8,-,N/A,,Overcast,180,2012-01-09 03:56:00
11:56 PM,55.9,48.9,77,30.22,10.0,South,4.6,-,N/A,,Mostly Cloudy,180,2012-01-09 04:56:00